Terminal Aerodrome Forecast
Issued by NWS Sioux Falls, SD

Home | Current Version | Previous Version | Graphics & Text | Print | Product List | Glossary Off
Versions: 1 2 3 4 5 6 7 8 9 10 11 12 13 14

000
FTUS43 KFSD 242300
TAFFSD
TAF
KFSD 242324Z 2500/2524 28005KT P6SM FEW080 BKN150
     FM250200 VRB03KT P6SM SKC
     FM251400 32009KT P6SM SCT100=

USA.gov is the U.S. government's official web portal to all federal, state and local government web resources and services.